sensor_id;sensor_type;location;lat;lon;timestamp;pressure;altitude;pressure_sealevel;temperature;humidity
58947;BME280;44724;52.332;4.978;2022-09-09T00:00:55;100839.50;;;15.56;100.00
58947;BME280;44724;52.332;4.978;2022-09-09T00:03:32;100845.91;;;15.48;100.00
58947;BME280;44724;52.332;4.978;2022-09-09T00:06:08;100849.50;;;15.48;100.00
58947;BME280;44724;52.332;4.978;2022-09-09T00:11:28;100841.44;;;15.47;100.00
58947;BME280;44724;52.332;4.978;2022-09-09T00:13:55;100839.16;;;15.49;100.00
58947;BME280;44724;52.332;4.978;2022-09-09T00:16:24;100843.75;;;15.45;100.00
58947;BME280;44724;52.332;4.978;2022-09-09T00:24:31;100847.50;;;15.40;100.00
58947;BME280;44724;52.332;4.978;2022-09-09T00:27:31;100842.94;;;15.44;100.00
58947;BME280;44724;52.332;4.978;2022-09-09T00:32:59;100840.63;;;15.46;100.00
58947;BME280;44724;52.332;4.978;2022-09-09T00:38:18;100837.19;;;15.40;100.00
58947;BME280;44724;52.332;4.978;2022-09-09T00:41:20;100854.09;;;15.44;100.00
58947;BME280;44724;52.332;4.978;2022-09-09T00:43:56;100846.50;;;15.36;100.00
58947;BME280;44724;52.332;4.978;2022-09-09T00:54:38;100846.47;;;15.27;100.00
58947;BME280;44724;52.332;4.978;2022-09-09T00:59:46;100852.66;;;15.24;100.00
58947;BME280;44724;52.332;4.978;2022-09-09T01:02:39;100851.38;;;15.21;100.00
58947;BME280;44724;52.332;4.978;2022-09-09T01:07:57;100850.19;;;15.14;100.00
58947;BME280;44724;52.332;4.978;2022-09-09T01:10:48;100849.34;;;15.13;100.00
58947;BME280;44724;52.332;4.978;2022-09-09T01:13:26;100857.22;;;15.11;100.00
58947;BME280;44724;52.332;4.978;2022-09-09T01:16:00;100855.25;;;15.12;100.00
58947;BME280;44724;52.332;4.978;2022-09-09T01:18:34;100849.47;;;15.08;100.00
58947;BME280;44724;52.332;4.978;2022-09-09T01:21:14;100855.41;;;15.07;100.00
58947;BME280;44724;52.332;4.978;2022-09-09T01:26:39;100867.19;;;15.04;100.00
58947;BME280;44724;52.332;4.978;2022-09-09T01:29:14;100865.66;;;14.97;100.00
58947;BME280;44724;52.332;4.978;2022-09-09T01:31:51;100866.19;;;14.99;100.00
58947;BME280;44724;52.332;4.978;2022-09-09T01:34:18;100866.13;;;14.91;100.00
58947;BME280;44724;52.332;4.978;2022-09-09T01:36:50;100865.28;;;14.90;100.00
58947;BME280;44724;52.332;4.978;2022-09-09T01:39:18;100855.94;;;14.86;100.00
58947;BME280;44724;52.332;4.978;2022-09-09T01:41:47;100853.47;;;14.85;100.00
58947;BME280;44724;52.332;4.978;2022-09-09T01:44:16;100865.75;;;14.83;100.00
58947;BME280;44724;52.332;4.978;2022-09-09T01:46:44;100857.22;;;14.80;100.00
58947;BME280;44724;52.332;4.978;2022-09-09T01:49:16;100862.06;;;14.74;100.00
58947;BME280;44724;52.332;4.978;2022-09-09T01:51:43;100855.69;;;14.74;100.00
58947;BME280;44724;52.332;4.978;2022-09-09T01:54:11;100854.06;;;14.73;100.00
58947;BME280;44724;52.332;4.978;2022-09-09T01:56:53;100855.00;;;14.68;100.00
58947;BME280;44724;52.332;4.978;2022-09-09T02:05:39;100841.38;;;14.67;100.00
58947;BME280;44724;52.332;4.978;2022-09-09T02:08:50;100852.72;;;14.70;100.00
58947;BME280;44724;52.332;4.978;2022-09-09T02:11:17;100849.63;;;14.72;100.00
58947;BME280;44724;52.332;4.978;2022-09-09T02:13:52;100841.94;;;14.77;100.00
58947;BME280;44724;52.332;4.978;2022-09-09T02:16:40;100844.41;;;14.79;100.00
58947;BME280;44724;52.332;4.978;2022-09-09T02:22:02;100838.84;;;14.79;100.00
58947;BME280;44724;52.332;4.978;2022-09-09T02:24:35;100831.63;;;14.78;100.00
58947;BME280;44724;52.332;4.978;2022-09-09T02:27:12;100833.72;;;14.72;100.00
58947;BME280;44724;52.332;4.978;2022-09-09T02:29:41;100829.19;;;14.76;100.00
58947;BME280;44724;52.332;4.978;2022-09-09T02:32:20;100821.75;;;14.72;100.00
58947;BME280;44724;52.332;4.978;2022-09-09T02:34:57;100823.88;;;14.66;100.00
58947;BME280;44724;52.332;4.978;2022-09-09T02:37:28;100826.34;;;14.68;100.00
58947;BME280;44724;52.332;4.978;2022-09-09T02:39:57;100826.16;;;14.64;100.00
58947;BME280;44724;52.332;4.978;2022-09-09T02:42:23;100822.34;;;14.60;100.00
58947;BME280;44724;52.332;4.978;2022-09-09T02:44:50;100826.38;;;14.54;100.00
58947;BME280;44724;52.332;4.978;2022-09-09T02:47:35;100827.00;;;14.51;100.00
58947;BME280;44724;52.332;4.978;2022-09-09T02:55:29;100814.28;;;14.36;100.00
58947;BME280;44724;52.332;4.978;2022-09-09T02:58:04;100814.78;;;14.38;100.00
58947;BME280;44724;52.332;4.978;2022-09-09T03:00:32;100809.41;;;14.41;100.00
58947;BME280;44724;52.332;4.978;2022-09-09T03:03:00;100816.09;;;14.40;100.00
58947;BME280;44724;52.332;4.978;2022-09-09T03:05:25;100811.81;;;14.34;100.00
58947;BME280;44724;52.332;4.978;2022-09-09T03:07:51;100823.75;;;14.35;100.00
58947;BME280;44724;52.332;4.978;2022-09-09T03:10:19;100824.38;;;14.32;100.00
58947;BME280;44724;52.332;4.978;2022-09-09T03:12:46;100821.09;;;14.30;100.00
58947;BME280;44724;52.332;4.978;2022-09-09T03:15:12;100824.00;;;14.24;100.00
58947;BME280;44724;52.332;4.978;2022-09-09T03:17:38;100812.88;;;14.24;100.00
58947;BME280;44724;52.332;4.978;2022-09-09T03:20:07;100825.47;;;14.22;100.00
58947;BME280;44724;52.332;4.978;2022-09-09T03:22:35;100817.13;;;14.22;100.00
58947;BME280;44724;52.332;4.978;2022-09-09T03:25:02;100821.88;;;14.21;100.00
58947;BME280;44724;52.332;4.978;2022-09-09T03:27:33;100817.75;;;14.19;100.00
58947;BME280;44724;52.332;4.978;2022-09-09T03:29:59;100815.28;;;14.17;100.00
58947;BME280;44724;52.332;4.978;2022-09-09T03:32:29;100829.19;;;14.17;100.00
58947;BME280;44724;52.332;4.978;2022-09-09T03:34:55;100824.28;;;14.14;100.00
58947;BME280;44724;52.332;4.978;2022-09-09T03:37:21;100822.63;;;14.13;100.00
58947;BME280;44724;52.332;4.978;2022-09-09T03:39:49;100819.31;;;14.11;100.00
58947;BME280;44724;52.332;4.978;2022-09-09T03:42:16;100817.88;;;14.14;100.00
58947;BME280;44724;52.332;4.978;2022-09-09T03:44:46;100815.94;;;14.14;100.00
58947;BME280;44724;52.332;4.978;2022-09-09T03:47:21;100812.09;;;14.10;100.00
58947;BME280;44724;52.332;4.978;2022-09-09T03:49:58;100816.84;;;14.10;100.00
58947;BME280;44724;52.332;4.978;2022-09-09T03:52:24;100811.47;;;14.13;100.00
58947;BME280;44724;52.332;4.978;2022-09-09T03:54:52;100818.16;;;14.12;100.00
58947;BME280;44724;52.332;4.978;2022-09-09T03:57:19;100813.75;;;14.11;100.00
58947;BME280;44724;52.332;4.978;2022-09-09T03:59:44;100809.81;;;14.12;100.00
58947;BME280;44724;52.332;4.978;2022-09-09T04:02:10;100814.25;;;14.13;100.00
58947;BME280;44724;52.332;4.978;2022-09-09T04:04:35;100805.41;;;14.11;100.00
58947;BME280;44724;52.332;4.978;2022-09-09T04:07:01;100812.75;;;14.07;100.00
58947;BME280;44724;52.332;4.978;2022-09-09T04:09:27;100803.56;;;14.06;100.00
58947;BME280;44724;52.332;4.978;2022-09-09T04:11:52;100810.28;;;14.05;100.00
58947;BME280;44724;52.332;4.978;2022-09-09T04:14:19;100804.72;;;14.05;100.00
58947;BME280;44724;52.332;4.978;2022-09-09T04:16:45;100800.09;;;14.01;100.00
58947;BME280;44724;52.332;4.978;2022-09-09T04:19:12;100810.72;;;13.99;100.00
58947;BME280;44724;52.332;4.978;2022-09-09T04:21:41;100817.41;;;13.98;100.00
58947;BME280;44724;52.332;4.978;2022-09-09T04:24:09;100809.91;;;13.98;100.00
58947;BME280;44724;52.332;4.978;2022-09-09T04:26:36;100799.59;;;13.99;100.00
58947;BME280;44724;52.332;4.978;2022-09-09T04:29:03;100793.50;;;13.97;100.00
58947;BME280;44724;52.332;4.978;2022-09-09T04:31:29;100797.09;;;13.97;100.00
58947;BME280;44724;52.332;4.978;2022-09-09T04:33:55;100804.75;;;13.92;100.00
58947;BME280;44724;52.332;4.978;2022-09-09T04:36:21;100800.00;;;13.92;100.00
58947;BME280;44724;52.332;4.978;2022-09-09T04:38:49;100800.81;;;13.93;100.00
58947;BME280;44724;52.332;4.978;2022-09-09T04:41:15;100796.72;;;13.90;100.00
58947;BME280;44724;52.332;4.978;2022-09-09T04:43:43;100801.47;;;13.90;100.00
58947;BME280;44724;52.332;4.978;2022-09-09T04:46:08;100793.13;;;13.90;100.00
58947;BME280;44724;52.332;4.978;2022-09-09T04:48:34;100795.06;;;13.89;100.00
58947;BME280;44724;52.332;4.978;2022-09-09T04:51:05;100806.84;;;13.86;100.00
58947;BME280;44724;52.332;4.978;2022-09-09T04:53:33;100796.72;;;13.90;100.00
58947;BME280;44724;52.332;4.978;2022-09-09T04:58:32;100785.97;;;13.97;100.00
58947;BME280;44724;52.332;4.978;2022-09-09T05:01:12;100782.88;;;13.99;100.00
58947;BME280;44724;52.332;4.978;2022-09-09T05:03:40;100777.31;;;13.99;100.00
58947;BME280;44724;52.332;4.978;2022-09-09T05:06:10;100775.88;;;14.01;100.00
58947;BME280;44724;52.332;4.978;2022-09-09T05:08:37;100776.16;;;14.00;100.00
58947;BME280;44724;52.332;4.978;2022-09-09T05:14:15;100774.44;;;14.04;100.00
58947;BME280;44724;52.332;4.978;2022-09-09T05:16:41;100769.88;;;14.08;100.00
58947;BME280;44724;52.332;4.978;2022-09-09T05:19:08;100760.09;;;14.11;100.00
58947;BME280;44724;52.332;4.978;2022-09-09T05:21:42;100755.66;;;14.10;100.00
58947;BME280;44724;52.332;4.978;2022-09-09T05:24:10;100760.41;;;14.09;100.00
58947;BME280;44724;52.332;4.978;2022-09-09T05:26:36;100760.59;;;14.13;100.00
58947;BME280;44724;52.332;4.978;2022-09-09T05:29:02;100761.41;;;14.13;100.00
58947;BME280;44724;52.332;4.978;2022-09-09T05:31:30;100755.72;;;14.18;100.00
58947;BME280;44724;52.332;4.978;2022-09-09T05:33:55;100758.00;;;14.16;100.00
58947;BME280;44724;52.332;4.978;2022-09-09T05:36:22;100749.53;;;14.21;100.00
58947;BME280;44724;52.332;4.978;2022-09-09T05:38:51;100750.03;;;14.23;100.00
58947;BME280;44724;52.332;4.978;2022-09-09T05:41:19;100737.72;;;14.24;100.00
58947;BME280;44724;52.332;4.978;2022-09-09T05:43:46;100749.06;;;14.28;100.00
58947;BME280;44724;52.332;4.978;2022-09-09T05:46:17;100740.06;;;14.31;100.00
58947;BME280;44724;52.332;4.978;2022-09-09T05:48:44;100743.34;;;14.33;100.00
58947;BME280;44724;52.332;4.978;2022-09-09T05:51:17;100747.81;;;14.34;100.00
58947;BME280;44724;52.332;4.978;2022-09-09T05:53:44;100753.25;;;14.39;100.00
58947;BME280;44724;52.332;4.978;2022-09-09T05:56:15;100751.78;;;14.42;100.00
58947;BME280;44724;52.332;4.978;2022-09-09T05:58:42;100746.88;;;14.48;100.00
58947;BME280;44724;52.332;4.978;2022-09-09T06:01:14;100743.97;;;14.53;100.00
58947;BME280;44724;52.332;4.978;2022-09-09T06:03:42;100743.66;;;14.54;100.00
58947;BME280;44724;52.332;4.978;2022-09-09T06:06:10;100741.59;;;14.60;100.00
58947;BME280;44724;52.332;4.978;2022-09-09T06:08:41;100737.47;;;14.57;100.00
58947;BME280;44724;52.332;4.978;2022-09-09T06:11:12;100739.47;;;14.66;100.00
58947;BME280;44724;52.332;4.978;2022-09-09T06:13:39;100739.88;;;14.73;100.00
58947;BME280;44724;52.332;4.978;2022-09-09T06:16:07;100739.06;;;14.81;100.00
58947;BME280;44724;52.332;4.978;2022-09-09T06:18:33;100736.72;;;14.74;100.00
58947;BME280;44724;52.332;4.978;2022-09-09T06:21:03;100732.38;;;14.82;100.00
58947;BME280;44724;52.332;4.978;2022-09-09T06:23:30;100726.03;;;14.99;100.00
58947;BME280;44724;52.332;4.978;2022-09-09T06:26:07;100729.19;;;15.15;100.00
58947;BME280;44724;52.332;4.978;2022-09-09T06:28:34;100724.47;;;15.24;100.00
58947;BME280;44724;52.332;4.978;2022-09-09T06:31:02;100721.53;;;15.38;100.00
58947;BME280;44724;52.332;4.978;2022-09-09T06:33:37;100711.88;;;15.35;100.00
58947;BME280;44724;52.332;4.978;2022-09-09T06:36:18;100713.31;;;15.24;100.00
58947;BME280;44724;52.332;4.978;2022-09-09T06:38:44;100720.22;;;15.35;100.00
58947;BME280;44724;52.332;4.978;2022-09-09T06:41:13;100715.97;;;15.38;100.00
58947;BME280;44724;52.332;4.978;2022-09-09T06:43:40;100716.81;;;15.38;100.00
58947;BME280;44724;52.332;4.978;2022-09-09T06:46:09;100716.16;;;15.59;100.00
58947;BME280;44724;52.332;4.978;2022-09-09T06:48:35;100712.06;;;15.56;100.00
58947;BME280;44724;52.332;4.978;2022-09-09T06:53:37;100710.31;;;15.87;100.00
58947;BME280;44724;52.332;4.978;2022-09-09T06:58:42;100688.13;;;16.08;100.00
58947;BME280;44724;52.332;4.978;2022-09-09T07:01:13;100684.66;;;16.11;100.00
58947;BME280;44724;52.332;4.978;2022-09-09T07:03:39;100686.94;;;16.18;100.00
58947;BME280;44724;52.332;4.978;2022-09-09T07:06:06;100679.03;;;16.20;100.00
58947;BME280;44724;52.332;4.978;2022-09-09T07:08:33;100675.63;;;16.14;100.00
58947;BME280;44724;52.332;4.978;2022-09-09T07:11:03;100688.91;;;16.26;100.00
58947;BME280;44724;52.332;4.978;2022-09-09T07:13:30;100668.38;;;16.22;100.00
58947;BME280;44724;52.332;4.978;2022-09-09T07:16:04;100666.72;;;16.29;100.00
58947;BME280;44724;52.332;4.978;2022-09-09T07:18:32;100675.25;;;16.33;100.00
58947;BME280;44724;52.332;4.978;2022-09-09T07:21:00;100677.59;;;16.22;100.00
58947;BME280;44724;52.332;4.978;2022-09-09T07:23:26;100678.53;;;16.26;100.00
58947;BME280;44724;52.332;4.978;2022-09-09T07:25:52;100678.03;;;16.33;100.00
58947;BME280;44724;52.332;4.978;2022-09-09T07:28:19;100686.13;;;16.26;100.00
58947;BME280;44724;52.332;4.978;2022-09-09T07:30:53;100688.59;;;16.19;100.00
58947;BME280;44724;52.332;4.978;2022-09-09T07:33:19;100673.47;;;16.20;100.00
58947;BME280;44724;52.332;4.978;2022-09-09T07:35:45;100683.50;;;16.21;100.00
58947;BME280;44724;52.332;4.978;2022-09-09T07:38:11;100683.97;;;16.23;100.00
58947;BME280;44724;52.332;4.978;2022-09-09T07:40:37;100688.03;;;16.34;100.00
58947;BME280;44724;52.332;4.978;2022-09-09T07:43:02;100687.25;;;16.25;100.00
58947;BME280;44724;52.332;4.978;2022-09-09T07:45:28;100681.50;;;16.30;100.00
58947;BME280;44724;52.332;4.978;2022-09-09T07:47:54;100686.41;;;16.33;100.00
58947;BME280;44724;52.332;4.978;2022-09-09T07:50:22;100688.34;;;16.41;100.00
58947;BME280;44724;52.332;4.978;2022-09-09T07:52:51;100678.03;;;16.42;100.00
58947;BME280;44724;52.332;4.978;2022-09-09T07:55:16;100678.00;;;16.50;100.00
58947;BME280;44724;52.332;4.978;2022-09-09T07:57:42;100670.75;;;16.49;100.00
58947;BME280;44724;52.332;4.978;2022-09-09T08:00:08;100676.53;;;16.35;100.00
58947;BME280;44724;52.332;4.978;2022-09-09T08:02:40;100674.94;;;16.34;100.00
58947;BME280;44724;52.332;4.978;2022-09-09T08:05:08;100678.66;;;16.47;100.00
58947;BME280;44724;52.332;4.978;2022-09-09T08:07:34;100680.09;;;16.53;100.00
58947;BME280;44724;52.332;4.978;2022-09-09T08:09:59;100679.69;;;16.72;100.00
58947;BME280;44724;52.332;4.978;2022-09-09T08:12:28;100665.69;;;16.81;100.00
58947;BME280;44724;52.332;4.978;2022-09-09T08:14:55;100668.19;;;17.13;100.00
58947;BME280;44724;52.332;4.978;2022-09-09T08:17:21;100664.75;;;17.07;100.00
58947;BME280;44724;52.332;4.978;2022-09-09T08:19:47;100670.34;;;17.07;100.00
58947;BME280;44724;52.332;4.978;2022-09-09T08:22:17;100660.06;;;17.41;100.00
58947;BME280;44724;52.332;4.978;2022-09-09T08:24:43;100666.16;;;17.43;100.00
58947;BME280;44724;52.332;4.978;2022-09-09T08:27:08;100655.59;;;17.48;100.00
58947;BME280;44724;52.332;4.978;2022-09-09T08:29:35;100661.59;;;17.59;100.00
58947;BME280;44724;52.332;4.978;2022-09-09T08:32:01;100663.06;;;17.78;100.00
58947;BME280;44724;52.332;4.978;2022-09-09T08:34:27;100655.50;;;17.78;100.00
58947;BME280;44724;52.332;4.978;2022-09-09T08:36:55;100656.25;;;17.66;100.00
58947;BME280;44724;52.332;4.978;2022-09-09T08:39:27;100662.88;;;17.62;100.00
58947;BME280;44724;52.332;4.978;2022-09-09T08:47:54;100671.06;;;17.46;100.00
58947;BME280;44724;52.332;4.978;2022-09-09T08:50:30;100689.22;;;17.40;100.00
58947;BME280;44724;52.332;4.978;2022-09-09T08:53:27;100693.50;;;17.37;100.00
58947;BME280;44724;52.332;4.978;2022-09-09T08:56:04;100691.25;;;17.31;100.00
58947;BME280;44724;52.332;4.978;2022-09-09T08:58:48;100689.19;;;17.19;100.00
58947;BME280;44724;52.332;4.978;2022-09-09T09:07:07;100701.59;;;17.09;100.00
58947;BME280;44724;52.332;4.978;2022-09-09T09:12:23;100701.53;;;16.88;100.00
58947;BME280;44724;52.332;4.978;2022-09-09T09:14:50;100703.16;;;16.89;100.00
58947;BME280;44724;52.332;4.978;2022-09-09T09:17:21;100706.81;;;17.10;100.00
58947;BME280;44724;52.332;4.978;2022-09-09T09:19:49;100701.38;;;17.14;100.00
58947;BME280;44724;52.332;4.978;2022-09-09T09:22:22;100701.31;;;17.23;100.00
58947;BME280;44724;52.332;4.978;2022-09-09T09:24:56;100687.41;;;17.14;100.00
58947;BME280;44724;52.332;4.978;2022-09-09T09:27:32;100693.22;;;17.30;100.00
58947;BME280;44724;52.332;4.978;2022-09-09T09:29:59;100687.38;;;17.44;100.00
58947;BME280;44724;52.332;4.978;2022-09-09T09:32:28;100685.66;;;17.52;100.00
58947;BME280;44724;52.332;4.978;2022-09-09T09:34:57;100701.56;;;17.39;100.00
58947;BME280;44724;52.332;4.978;2022-09-09T09:37:30;100697.59;;;17.40;100.00
58947;BME280;44724;52.332;4.978;2022-09-09T09:40:16;100702.41;;;17.39;100.00
58947;BME280;44724;52.332;4.978;2022-09-09T09:42:54;100698.56;;;17.44;100.00
58947;BME280;44724;52.332;4.978;2022-09-09T09:45:34;100697.59;;;17.40;100.00
58947;BME280;44724;52.332;4.978;2022-09-09T09:48:04;100710.59;;;17.15;100.00
58947;BME280;44724;52.332;4.978;2022-09-09T09:50:32;100711.59;;;17.10;100.00
58947;BME280;44724;52.332;4.978;2022-09-09T09:53:06;100711.06;;;17.17;100.00
58947;BME280;44724;52.332;4.978;2022-09-09T09:55:50;100710.78;;;17.09;100.00
58947;BME280;44724;52.332;4.978;2022-09-09T09:58:18;100704.81;;;17.41;100.00
58947;BME280;44724;52.332;4.978;2022-09-09T10:00:50;100698.56;;;17.44;100.00
58947;BME280;44724;52.332;4.978;2022-09-09T10:03:37;100714.88;;;17.42;100.00
58947;BME280;44724;52.332;4.978;2022-09-09T10:06:05;100724.53;;;17.23;100.00
58947;BME280;44724;52.332;4.978;2022-09-09T10:08:34;100713.78;;;17.34;100.00
58947;BME280;44724;52.332;4.978;2022-09-09T10:22:23;100678.38;;;17.80;100.00
58947;BME280;44724;52.332;4.978;2022-09-09T10:33:32;100677.75;;;17.96;100.00
58947;BME280;44724;52.332;4.978;2022-09-09T10:36:13;100692.22;;;17.77;100.00
58947;BME280;44724;52.332;4.978;2022-09-09T10:38:41;100691.59;;;17.92;100.00
58947;BME280;44724;52.332;4.978;2022-09-09T10:41:33;100691.53;;;18.01;100.00
58947;BME280;44724;52.332;4.978;2022-09-09T10:49:51;100681.31;;;18.17;100.00
58947;BME280;44724;52.332;4.978;2022-09-09T10:52:31;100680.59;;;18.08;100.00
58947;BME280;44724;52.332;4.978;2022-09-09T10:55:13;100660.94;;;18.29;100.00
58947;BME280;44724;52.332;4.978;2022-09-09T10:57:47;100654.66;;;18.45;100.00
58947;BME280;44724;52.332;4.978;2022-09-09T11:02:41;100654.13;;;18.88;100.00
58947;BME280;44724;52.332;4.978;2022-09-09T11:05:17;100648.50;;;18.88;100.00
58947;BME280;44724;52.332;4.978;2022-09-09T11:07:51;100656.69;;;18.93;100.00
58947;BME280;44724;52.332;4.978;2022-09-09T11:10:26;100648.97;;;18.66;100.00
58947;BME280;44724;52.332;4.978;2022-09-09T11:13:01;100646.28;;;18.69;100.00
58947;BME280;44724;52.332;4.978;2022-09-09T11:15:38;100650.94;;;18.77;100.00
58947;BME280;44724;52.332;4.978;2022-09-09T11:18:09;100661.31;;;18.40;100.00
58947;BME280;44724;52.332;4.978;2022-09-09T11:20:37;100671.88;;;18.22;100.00
58947;BME280;44724;52.332;4.978;2022-09-09T11:23:12;100675.91;;;18.00;100.00
58947;BME280;44724;52.332;4.978;2022-09-09T11:25:48;100672.97;;;17.96;100.00
58947;BME280;44724;52.332;4.978;2022-09-09T11:28:31;100698.25;;;17.88;100.00
58947;BME280;44724;52.332;4.978;2022-09-09T11:31:21;100702.81;;;17.92;100.00
58947;BME280;44724;52.332;4.978;2022-09-09T11:44:39;100680.56;;;18.41;100.00
58947;BME280;44724;52.332;4.978;2022-09-09T11:47:27;100674.88;;;18.50;100.00
58947;BME280;44724;52.332;4.978;2022-09-09T11:52:44;100676.13;;;18.53;100.00
58947;BME280;44724;52.332;4.978;2022-09-09T11:55:31;100695.47;;;18.33;100.00
58947;BME280;44724;52.332;4.978;2022-09-09T11:58:03;100690.34;;;18.23;100.00
58947;BME280;44724;52.332;4.978;2022-09-09T12:00:38;100682.78;;;18.36;100.00
58947;BME280;44724;52.332;4.978;2022-09-09T12:03:06;100683.84;;;18.43;100.00
58947;BME280;44724;52.332;4.978;2022-09-09T12:05:51;100684.09;;;18.51;100.00
58947;BME280;44724;52.332;4.978;2022-09-09T12:08:26;100701.63;;;18.48;100.00
58947;BME280;44724;52.332;4.978;2022-09-09T12:10:58;100725.69;;;18.73;100.00
58947;BME280;44724;52.332;4.978;2022-09-09T12:13:26;100725.00;;;18.31;100.00
58947;BME280;44724;52.332;4.978;2022-09-09T12:15:53;100722.47;;;18.38;100.00
58947;BME280;44724;52.332;4.978;2022-09-09T12:18:36;100707.38;;;18.64;100.00
58947;BME280;44724;52.332;4.978;2022-09-09T12:24:05;100703.41;;;18.31;100.00
58947;BME280;44724;52.332;4.978;2022-09-09T12:31:56;100693.88;;;18.45;100.00
58947;BME280;44724;52.332;4.978;2022-09-09T12:34:47;100683.41;;;18.66;100.00
58947;BME280;44724;52.332;4.978;2022-09-09T12:37:31;100674.47;;;18.85;100.00
58947;BME280;44724;52.332;4.978;2022-09-09T12:40:00;100673.28;;;18.98;100.00
58947;BME280;44724;52.332;4.978;2022-09-09T12:42:28;100663.22;;;18.73;100.00
58947;BME280;44724;52.332;4.978;2022-09-09T12:44:59;100673.84;;;18.55;100.00
58947;BME280;44724;52.332;4.978;2022-09-09T12:47:34;100675.47;;;18.56;100.00
58947;BME280;44724;52.332;4.978;2022-09-09T12:50:02;100675.19;;;18.36;100.00
58947;BME280;44724;52.332;4.978;2022-09-09T12:52:35;100693.19;;;18.35;100.00
58947;BME280;44724;52.332;4.978;2022-09-09T12:55:05;100686.19;;;18.54;100.00
58947;BME280;44724;52.332;4.978;2022-09-09T12:57:38;100680.78;;;18.36;100.00
58947;BME280;44724;52.332;4.978;2022-09-09T13:00:15;100682.56;;;18.41;100.00
58947;BME280;44724;52.332;4.978;2022-09-09T13:02:52;100685.53;;;18.23;100.00
58947;BME280;44724;52.332;4.978;2022-09-09T13:05:27;100699.38;;;18.08;100.00
58947;BME280;44724;52.332;4.978;2022-09-09T13:08:01;100710.38;;;18.13;100.00
58947;BME280;44724;52.332;4.978;2022-09-09T13:10:31;100714.75;;;18.35;100.00
58947;BME280;44724;52.332;4.978;2022-09-09T13:12:58;100706.69;;;18.33;100.00
58947;BME280;44724;52.332;4.978;2022-09-09T13:15:30;100728.16;;;18.29;100.00
58947;BME280;44724;52.332;4.978;2022-09-09T13:17:59;100741.13;;;18.34;100.00
58947;BME280;44724;52.332;4.978;2022-09-09T13:20:29;100752.25;;;18.09;100.00
58947;BME280;44724;52.332;4.978;2022-09-09T13:22:56;100760.34;;;17.81;100.00
58947;BME280;44724;52.332;4.978;2022-09-09T13:25:27;100768.53;;;17.35;100.00
58947;BME280;44724;52.332;4.978;2022-09-09T13:28:04;100778.69;;;17.10;100.00
58947;BME280;44724;52.332;4.978;2022-09-09T13:30:33;100798.56;;;17.17;100.00
58947;BME280;44724;52.332;4.978;2022-09-09T13:36:00;100814.78;;;16.85;100.00
58947;BME280;44724;52.332;4.978;2022-09-09T13:38:30;100819.06;;;16.83;100.00
58947;BME280;44724;52.332;4.978;2022-09-09T13:43:23;100827.06;;;17.02;100.00
58947;BME280;44724;52.332;4.978;2022-09-09T13:45:58;100819.19;;;17.04;100.00
58947;BME280;44724;52.332;4.978;2022-09-09T13:48:24;100823.72;;;17.17;100.00
58947;BME280;44724;52.332;4.978;2022-09-09T13:51:01;100816.59;;;17.28;100.00
58947;BME280;44724;52.332;4.978;2022-09-09T13:53:29;100805.03;;;17.39;100.00
58947;BME280;44724;52.332;4.978;2022-09-09T13:55:56;100796.94;;;17.46;100.00
58947;BME280;44724;52.332;4.978;2022-09-09T13:58:22;100801.47;;;17.59;100.00
58947;BME280;44724;52.332;4.978;2022-09-09T14:00:54;100784.03;;;17.62;100.00
58947;BME280;44724;52.332;4.978;2022-09-09T14:03:20;100795.78;;;17.77;100.00
58947;BME280;44724;52.332;4.978;2022-09-09T14:05:46;100790.56;;;17.66;100.00
58947;BME280;44724;52.332;4.978;2022-09-09T14:08:25;100784.09;;;17.75;100.00
58947;BME280;44724;52.332;4.978;2022-09-09T14:10:51;100777.59;;;17.83;100.00
58947;BME280;44724;52.332;4.978;2022-09-09T14:13:17;100768.50;;;17.95;100.00
58947;BME280;44724;52.332;4.978;2022-09-09T14:15:43;100759.97;;;17.91;100.00
58947;BME280;44724;52.332;4.978;2022-09-09T14:18:12;100754.56;;;18.07;100.00
58947;BME280;44724;52.332;4.978;2022-09-09T14:20:38;100738.72;;;17.90;100.00
58947;BME280;44724;52.332;4.978;2022-09-09T14:23:03;100731.06;;;17.78;100.00
58947;BME280;44724;52.332;4.978;2022-09-09T14:25:29;100736.97;;;17.85;100.00
58947;BME280;44724;52.332;4.978;2022-09-09T14:27:54;100739.97;;;18.01;100.00
58947;BME280;44724;52.332;4.978;2022-09-09T14:30:21;100737.25;;;17.93;100.00
58947;BME280;44724;52.332;4.978;2022-09-09T14:32:49;100740.38;;;17.91;100.00
58947;BME280;44724;52.332;4.978;2022-09-09T14:35:15;100730.44;;;18.15;100.00
58947;BME280;44724;52.332;4.978;2022-09-09T14:37:42;100730.94;;;18.29;100.00
58947;BME280;44724;52.332;4.978;2022-09-09T14:40:08;100713.97;;;18.47;100.00
58947;BME280;44724;52.332;4.978;2022-09-09T14:42:36;100704.72;;;18.34;100.00
58947;BME280;44724;52.332;4.978;2022-09-09T14:45:02;100704.91;;;18.62;100.00
58947;BME280;44724;52.332;4.978;2022-09-09T14:47:27;100703.59;;;18.59;100.00
58947;BME280;44724;52.332;4.978;2022-09-09T14:49:54;100702.44;;;18.60;100.00
58947;BME280;44724;52.332;4.978;2022-09-09T14:52:20;100701.13;;;18.58;100.00
58947;BME280;44724;52.332;4.978;2022-09-09T14:54:45;100710.28;;;18.67;100.00
58947;BME280;44724;52.332;4.978;2022-09-09T14:57:10;100706.28;;;18.56;100.00
58947;BME280;44724;52.332;4.978;2022-09-09T14:59:36;100712.72;;;18.69;100.00
58947;BME280;44724;52.332;4.978;2022-09-09T15:02:04;100692.72;;;18.46;100.00
58947;BME280;44724;52.332;4.978;2022-09-09T15:04:30;100698.78;;;18.35;100.00